sensor_id;sensor_type;location;lat;lon;timestamp;P1;durP1;ratioP1;P2;durP2;ratioP2
66619;SDS011;53484;51.356;6.732;2022-12-07T00:01:03;22.55;;;13.13;;
66619;SDS011;53484;51.356;6.732;2022-12-07T00:03:30;24.77;;;14.57;;
66619;SDS011;53484;51.356;6.732;2022-12-07T00:05:56;25.33;;;13.02;;
66619;SDS011;53484;51.356;6.732;2022-12-07T00:08:23;26.83;;;15.00;;
66619;SDS011;53484;51.356;6.732;2022-12-07T00:10:49;27.58;;;15.23;;
66619;SDS011;53484;51.356;6.732;2022-12-07T00:13:15;25.70;;;15.27;;
66619;SDS011;53484;51.356;6.732;2022-12-07T00:15:43;27.67;;;15.37;;
66619;SDS011;53484;51.356;6.732;2022-12-07T00:18:09;31.90;;;16.50;;
66619;SDS011;53484;51.356;6.732;2022-12-07T00:20:36;27.00;;;15.65;;
66619;SDS011;53484;51.356;6.732;2022-12-07T00:23:02;33.10;;;16.02;;
66619;SDS011;53484;51.356;6.732;2022-12-07T00:25:29;28.17;;;15.27;;
66619;SDS011;53484;51.356;6.732;2022-12-07T00:27:56;28.23;;;15.77;;
66619;SDS011;53484;51.356;6.732;2022-12-07T00:30:22;33.50;;;15.93;;
66619;SDS011;53484;51.356;6.732;2022-12-07T00:32:50;30.58;;;16.42;;
66619;SDS011;53484;51.356;6.732;2022-12-07T00:35:16;29.83;;;16.25;;
66619;SDS011;53484;51.356;6.732;2022-12-07T00:37:42;31.83;;;15.60;;
66619;SDS011;53484;51.356;6.732;2022-12-07T00:40:09;28.73;;;15.40;;
66619;SDS011;53484;51.356;6.732;2022-12-07T00:42:35;27.77;;;15.50;;
66619;SDS011;53484;51.356;6.732;2022-12-07T00:45:01;28.05;;;16.13;;
66619;SDS011;53484;51.356;6.732;2022-12-07T00:47:28;25.20;;;14.50;;
66619;SDS011;53484;51.356;6.732;2022-12-07T00:49:55;30.48;;;17.00;;
66619;SDS011;53484;51.356;6.732;2022-12-07T00:52:21;32.83;;;17.40;;
66619;SDS011;53484;51.356;6.732;2022-12-07T00:54:48;28.90;;;16.67;;
66619;SDS011;53484;51.356;6.732;2022-12-07T00:57:14;31.27;;;16.48;;
66619;SDS011;53484;51.356;6.732;2022-12-07T00:59:40;32.00;;;17.45;;
66619;SDS011;53484;51.356;6.732;2022-12-07T01:02:06;27.08;;;15.40;;
66619;SDS011;53484;51.356;6.732;2022-12-07T01:04:33;24.60;;;14.87;;
66619;SDS011;53484;51.356;6.732;2022-12-07T01:07:00;29.15;;;16.08;;
66619;SDS011;53484;51.356;6.732;2022-12-07T01:09:27;28.55;;;16.40;;
66619;SDS011;53484;51.356;6.732;2022-12-07T01:11:53;31.85;;;16.08;;
66619;SDS011;53484;51.356;6.732;2022-12-07T01:14:19;30.42;;;15.63;;
66619;SDS011;53484;51.356;6.732;2022-12-07T01:16:46;30.17;;;15.37;;
66619;SDS011;53484;51.356;6.732;2022-12-07T01:19:12;34.17;;;17.35;;
66619;SDS011;53484;51.356;6.732;2022-12-07T01:21:38;30.20;;;16.25;;
66619;SDS011;53484;51.356;6.732;2022-12-07T01:24:07;30.40;;;16.30;;
66619;SDS011;53484;51.356;6.732;2022-12-07T01:26:35;27.42;;;16.92;;
66619;SDS011;53484;51.356;6.732;2022-12-07T01:29:01;27.10;;;16.30;;
66619;SDS011;53484;51.356;6.732;2022-12-07T01:31:27;34.90;;;17.48;;
66619;SDS011;53484;51.356;6.732;2022-12-07T01:33:55;32.78;;;17.88;;
66619;SDS011;53484;51.356;6.732;2022-12-07T01:36:22;27.80;;;16.30;;
66619;SDS011;53484;51.356;6.732;2022-12-07T01:38:50;27.88;;;16.67;;
66619;SDS011;53484;51.356;6.732;2022-12-07T01:41:19;27.40;;;16.60;;
66619;SDS011;53484;51.356;6.732;2022-12-07T01:46:30;30.45;;;16.10;;
66619;SDS011;53484;51.356;6.732;2022-12-07T01:48:57;29.55;;;17.00;;
66619;SDS011;53484;51.356;6.732;2022-12-07T01:51:23;30.05;;;16.20;;
66619;SDS011;53484;51.356;6.732;2022-12-07T01:53:49;33.07;;;16.83;;
66619;SDS011;53484;51.356;6.732;2022-12-07T01:56:17;27.30;;;15.15;;
66619;SDS011;53484;51.356;6.732;2022-12-07T01:58:45;27.45;;;16.15;;
66619;SDS011;53484;51.356;6.732;2022-12-07T02:01:12;29.80;;;16.58;;
66619;SDS011;53484;51.356;6.732;2022-12-07T02:03:40;34.25;;;17.75;;
66619;SDS011;53484;51.356;6.732;2022-12-07T02:06:07;29.13;;;15.27;;
66619;SDS011;53484;51.356;6.732;2022-12-07T02:08:34;30.95;;;16.88;;
66619;SDS011;53484;51.356;6.732;2022-12-07T02:11:00;29.55;;;15.48;;
66619;SDS011;53484;51.356;6.732;2022-12-07T02:13:27;28.83;;;17.05;;
66619;SDS011;53484;51.356;6.732;2022-12-07T02:16:14;34.10;;;17.25;;
66619;SDS011;53484;51.356;6.732;2022-12-07T02:18:47;28.23;;;16.57;;
66619;SDS011;53484;51.356;6.732;2022-12-07T02:21:16;27.42;;;15.55;;
66619;SDS011;53484;51.356;6.732;2022-12-07T02:23:55;28.35;;;15.77;;
66619;SDS011;53484;51.356;6.732;2022-12-07T02:29:16;32.20;;;17.23;;
66619;SDS011;53484;51.356;6.732;2022-12-07T02:31:44;30.53;;;16.27;;
66619;SDS011;53484;51.356;6.732;2022-12-07T02:34:12;30.35;;;15.10;;
66619;SDS011;53484;51.356;6.732;2022-12-07T02:36:42;29.63;;;15.48;;
66619;SDS011;53484;51.356;6.732;2022-12-07T02:39:11;30.70;;;17.30;;
66619;SDS011;53484;51.356;6.732;2022-12-07T02:41:42;35.25;;;16.83;;
66619;SDS011;53484;51.356;6.732;2022-12-07T02:44:10;29.20;;;17.27;;
66619;SDS011;53484;51.356;6.732;2022-12-07T02:46:40;29.63;;;16.15;;
66619;SDS011;53484;51.356;6.732;2022-12-07T02:49:07;31.98;;;17.90;;
66619;SDS011;53484;51.356;6.732;2022-12-07T02:51:38;31.27;;;16.50;;
66619;SDS011;53484;51.356;6.732;2022-12-07T02:54:07;31.88;;;17.50;;
66619;SDS011;53484;51.356;6.732;2022-12-07T02:56:36;29.40;;;16.23;;
66619;SDS011;53484;51.356;6.732;2022-12-07T02:59:07;30.08;;;17.00;;
66619;SDS011;53484;51.356;6.732;2022-12-07T03:01:42;35.25;;;17.42;;
66619;SDS011;53484;51.356;6.732;2022-12-07T03:04:18;28.15;;;16.42;;
66619;SDS011;53484;51.356;6.732;2022-12-07T03:06:49;30.92;;;16.92;;
66619;SDS011;53484;51.356;6.732;2022-12-07T03:09:19;28.47;;;16.07;;
66619;SDS011;53484;51.356;6.732;2022-12-07T03:11:48;30.25;;;16.73;;
66619;SDS011;53484;51.356;6.732;2022-12-07T03:14:17;30.85;;;16.30;;
66619;SDS011;53484;51.356;6.732;2022-12-07T03:16:47;28.27;;;16.95;;
66619;SDS011;53484;51.356;6.732;2022-12-07T03:19:17;30.00;;;17.35;;
66619;SDS011;53484;51.356;6.732;2022-12-07T03:21:44;36.93;;;17.27;;
66619;SDS011;53484;51.356;6.732;2022-12-07T03:24:14;36.17;;;17.40;;
66619;SDS011;53484;51.356;6.732;2022-12-07T03:26:41;30.73;;;16.95;;
66619;SDS011;53484;51.356;6.732;2022-12-07T03:29:10;28.08;;;15.55;;
66619;SDS011;53484;51.356;6.732;2022-12-07T03:31:39;29.42;;;15.23;;
66619;SDS011;53484;51.356;6.732;2022-12-07T03:34:09;31.03;;;17.87;;
66619;SDS011;53484;51.356;6.732;2022-12-07T03:36:38;31.17;;;14.82;;
66619;SDS011;53484;51.356;6.732;2022-12-07T03:39:07;31.02;;;15.90;;
66619;SDS011;53484;51.356;6.732;2022-12-07T03:41:37;28.63;;;15.18;;
66619;SDS011;53484;51.356;6.732;2022-12-07T03:44:04;29.50;;;17.08;;
66619;SDS011;53484;51.356;6.732;2022-12-07T03:46:33;29.50;;;16.30;;
66619;SDS011;53484;51.356;6.732;2022-12-07T03:49:02;28.15;;;16.05;;
66619;SDS011;53484;51.356;6.732;2022-12-07T03:51:33;30.52;;;17.67;;
66619;SDS011;53484;51.356;6.732;2022-12-07T03:54:05;32.25;;;17.08;;
66619;SDS011;53484;51.356;6.732;2022-12-07T03:56:34;28.85;;;16.65;;
66619;SDS011;53484;51.356;6.732;2022-12-07T03:59:01;34.40;;;17.40;;
66619;SDS011;53484;51.356;6.732;2022-12-07T04:01:27;33.40;;;17.75;;
66619;SDS011;53484;51.356;6.732;2022-12-07T04:03:53;31.25;;;16.40;;
66619;SDS011;53484;51.356;6.732;2022-12-07T04:06:19;31.52;;;17.25;;
66619;SDS011;53484;51.356;6.732;2022-12-07T04:08:47;28.30;;;15.70;;
66619;SDS011;53484;51.356;6.732;2022-12-07T04:11:13;29.63;;;15.57;;
66619;SDS011;53484;51.356;6.732;2022-12-07T04:13:40;30.77;;;16.42;;
66619;SDS011;53484;51.356;6.732;2022-12-07T04:16:23;31.13;;;17.00;;
66619;SDS011;53484;51.356;6.732;2022-12-07T04:18:50;30.25;;;16.00;;
66619;SDS011;53484;51.356;6.732;2022-12-07T04:21:16;27.58;;;16.08;;
66619;SDS011;53484;51.356;6.732;2022-12-07T04:23:42;26.97;;;14.20;;
66619;SDS011;53484;51.356;6.732;2022-12-07T04:26:10;24.25;;;14.48;;
66619;SDS011;53484;51.356;6.732;2022-12-07T04:28:36;27.10;;;15.23;;
66619;SDS011;53484;51.356;6.732;2022-12-07T04:31:02;26.40;;;15.02;;
66619;SDS011;53484;51.356;6.732;2022-12-07T04:33:29;27.98;;;14.27;;
66619;SDS011;53484;51.356;6.732;2022-12-07T04:35:55;26.23;;;15.57;;
66619;SDS011;53484;51.356;6.732;2022-12-07T04:38:21;24.50;;;14.02;;
66619;SDS011;53484;51.356;6.732;2022-12-07T04:40:47;25.02;;;14.77;;
66619;SDS011;53484;51.356;6.732;2022-12-07T04:43:15;29.23;;;14.13;;
66619;SDS011;53484;51.356;6.732;2022-12-07T04:45:44;23.98;;;13.80;;
66619;SDS011;53484;51.356;6.732;2022-12-07T04:48:11;23.37;;;13.10;;
66619;SDS011;53484;51.356;6.732;2022-12-07T04:50:37;28.73;;;13.13;;
66619;SDS011;53484;51.356;6.732;2022-12-07T04:53:03;25.65;;;11.95;;
66619;SDS011;53484;51.356;6.732;2022-12-07T04:55:30;28.05;;;12.98;;
66619;SDS011;53484;51.356;6.732;2022-12-07T04:57:56;24.20;;;12.98;;
66619;SDS011;53484;51.356;6.732;2022-12-07T05:00:23;24.50;;;12.53;;
66619;SDS011;53484;51.356;6.732;2022-12-07T05:02:50;23.23;;;11.80;;
66619;SDS011;53484;51.356;6.732;2022-12-07T05:05:16;19.80;;;11.55;;
66619;SDS011;53484;51.356;6.732;2022-12-07T05:07:42;24.33;;;12.43;;
66619;SDS011;53484;51.356;6.732;2022-12-07T05:10:09;20.00;;;11.05;;
66619;SDS011;53484;51.356;6.732;2022-12-07T05:12:35;24.70;;;12.50;;
66619;SDS011;53484;51.356;6.732;2022-12-07T05:15:01;25.15;;;12.45;;
66619;SDS011;53484;51.356;6.732;2022-12-07T05:17:29;22.90;;;11.52;;
66619;SDS011;53484;51.356;6.732;2022-12-07T05:19:56;23.20;;;11.75;;
66619;SDS011;53484;51.356;6.732;2022-12-07T05:22:22;25.35;;;12.25;;
66619;SDS011;53484;51.356;6.732;2022-12-07T05:24:52;22.40;;;11.97;;
66619;SDS011;53484;51.356;6.732;2022-12-07T05:27:19;24.05;;;11.35;;
66619;SDS011;53484;51.356;6.732;2022-12-07T05:29:45;23.20;;;11.05;;
66619;SDS011;53484;51.356;6.732;2022-12-07T05:32:11;24.17;;;11.35;;
66619;SDS011;53484;51.356;6.732;2022-12-07T05:34:39;19.63;;;11.02;;
66619;SDS011;53484;51.356;6.732;2022-12-07T05:37:05;19.57;;;10.47;;
66619;SDS011;53484;51.356;6.732;2022-12-07T05:39:32;18.30;;;9.70;;
66619;SDS011;53484;51.356;6.732;2022-12-07T05:41:58;19.77;;;11.23;;
66619;SDS011;53484;51.356;6.732;2022-12-07T05:44:39;22.80;;;11.25;;
66619;SDS011;53484;51.356;6.732;2022-12-07T05:47:06;22.30;;;9.60;;
66619;SDS011;53484;51.356;6.732;2022-12-07T05:49:32;17.63;;;9.83;;
66619;SDS011;53484;51.356;6.732;2022-12-07T05:52:00;19.05;;;9.63;;
66619;SDS011;53484;51.356;6.732;2022-12-07T05:54:27;25.25;;;10.63;;
66619;SDS011;53484;51.356;6.732;2022-12-07T05:56:54;25.42;;;9.73;;
66619;SDS011;53484;51.356;6.732;2022-12-07T05:59:20;21.48;;;9.95;;
66619;SDS011;53484;51.356;6.732;2022-12-07T06:01:48;16.87;;;9.77;;
66619;SDS011;53484;51.356;6.732;2022-12-07T06:04:14;20.30;;;9.95;;
66619;SDS011;53484;51.356;6.732;2022-12-07T06:06:41;17.88;;;9.57;;
66619;SDS011;53484;51.356;6.732;2022-12-07T06:09:08;23.48;;;9.82;;
66619;SDS011;53484;51.356;6.732;2022-12-07T06:11:35;24.42;;;9.68;;
66619;SDS011;53484;51.356;6.732;2022-12-07T06:14:34;20.40;;;9.87;;
66619;SDS011;53484;51.356;6.732;2022-12-07T06:17:00;19.85;;;9.73;;
66619;SDS011;53484;51.356;6.732;2022-12-07T06:19:26;29.45;;;8.65;;
66619;SDS011;53484;51.356;6.732;2022-12-07T06:21:54;15.95;;;7.40;;
66619;SDS011;53484;51.356;6.732;2022-12-07T06:24:22;20.85;;;8.52;;
66619;SDS011;53484;51.356;6.732;2022-12-07T06:26:48;17.80;;;9.33;;
66619;SDS011;53484;51.356;6.732;2022-12-07T06:29:15;22.27;;;8.90;;
66619;SDS011;53484;51.356;6.732;2022-12-07T06:31:41;20.58;;;8.88;;
66619;SDS011;53484;51.356;6.732;2022-12-07T06:34:09;18.15;;;9.13;;
66619;SDS011;53484;51.356;6.732;2022-12-07T06:36:35;17.55;;;8.63;;
66619;SDS011;53484;51.356;6.732;2022-12-07T06:39:02;19.27;;;8.30;;
66619;SDS011;53484;51.356;6.732;2022-12-07T06:41:30;19.10;;;9.45;;
66619;SDS011;53484;51.356;6.732;2022-12-07T06:43:56;17.88;;;8.75;;
66619;SDS011;53484;51.356;6.732;2022-12-07T06:46:23;14.70;;;8.13;;
66619;SDS011;53484;51.356;6.732;2022-12-07T06:48:49;15.15;;;8.30;;
66619;SDS011;53484;51.356;6.732;2022-12-07T06:51:16;17.83;;;8.00;;
66619;SDS011;53484;51.356;6.732;2022-12-07T06:53:42;19.73;;;8.93;;
66619;SDS011;53484;51.356;6.732;2022-12-07T06:56:08;19.98;;;8.70;;
66619;SDS011;53484;51.356;6.732;2022-12-07T06:58:36;19.80;;;8.55;;
66619;SDS011;53484;51.356;6.732;2022-12-07T07:01:02;19.20;;;9.13;;
66619;SDS011;53484;51.356;6.732;2022-12-07T07:03:28;22.00;;;9.63;;
66619;SDS011;53484;51.356;6.732;2022-12-07T07:05:55;17.00;;;8.48;;
66619;SDS011;53484;51.356;6.732;2022-12-07T07:08:21;15.70;;;8.43;;
66619;SDS011;53484;51.356;6.732;2022-12-07T07:10:47;21.48;;;8.75;;
66619;SDS011;53484;51.356;6.732;2022-12-07T07:13:14;18.30;;;8.27;;
66619;SDS011;53484;51.356;6.732;2022-12-07T07:15:42;17.53;;;8.57;;
66619;SDS011;53484;51.356;6.732;2022-12-07T07:18:08;19.13;;;8.68;;
66619;SDS011;53484;51.356;6.732;2022-12-07T07:20:35;16.25;;;8.52;;
66619;SDS011;53484;51.356;6.732;2022-12-07T07:23:01;28.13;;;9.60;;
66619;SDS011;53484;51.356;6.732;2022-12-07T07:25:27;20.58;;;8.82;;
66619;SDS011;53484;51.356;6.732;2022-12-07T07:27:54;17.43;;;9.00;;
66619;SDS011;53484;51.356;6.732;2022-12-07T07:30:20;18.42;;;9.70;;
66619;SDS011;53484;51.356;6.732;2022-12-07T07:32:48;14.85;;;8.18;;
66619;SDS011;53484;51.356;6.732;2022-12-07T07:35:14;19.52;;;9.43;;
66619;SDS011;53484;51.356;6.732;2022-12-07T07:37:40;19.42;;;8.38;;
66619;SDS011;53484;51.356;6.732;2022-12-07T07:40:07;15.23;;;7.43;;
66619;SDS011;53484;51.356;6.732;2022-12-07T07:42:33;19.80;;;8.68;;
66619;SDS011;53484;51.356;6.732;2022-12-07T07:45:00;15.88;;;8.57;;
66619;SDS011;53484;51.356;6.732;2022-12-07T07:47:26;19.63;;;9.10;;
66619;SDS011;53484;51.356;6.732;2022-12-07T07:49:55;19.08;;;8.57;;
66619;SDS011;53484;51.356;6.732;2022-12-07T07:52:22;18.50;;;8.63;;
66619;SDS011;53484;51.356;6.732;2022-12-07T07:54:48;16.55;;;8.60;;
66619;SDS011;53484;51.356;6.732;2022-12-07T07:57:15;18.88;;;8.90;;
66619;SDS011;53484;51.356;6.732;2022-12-07T07:59:42;18.17;;;8.98;;
66619;SDS011;53484;51.356;6.732;2022-12-07T08:02:09;14.85;;;8.38;;
66619;SDS011;53484;51.356;6.732;2022-12-07T08:04:39;17.90;;;8.97;;
66619;SDS011;53484;51.356;6.732;2022-12-07T08:07:06;18.13;;;9.65;;
66619;SDS011;53484;51.356;6.732;2022-12-07T08:09:33;19.73;;;9.95;;
66619;SDS011;53484;51.356;6.732;2022-12-07T08:11:59;22.05;;;9.52;;
66619;SDS011;53484;51.356;6.732;2022-12-07T08:14:25;18.00;;;9.88;;
66619;SDS011;53484;51.356;6.732;2022-12-07T08:16:53;22.23;;;11.07;;
66619;SDS011;53484;51.356;6.732;2022-12-07T08:19:20;15.88;;;9.30;;
66619;SDS011;53484;51.356;6.732;2022-12-07T08:21:46;18.33;;;9.20;;
66619;SDS011;53484;51.356;6.732;2022-12-07T08:24:14;15.13;;;9.05;;
66619;SDS011;53484;51.356;6.732;2022-12-07T08:26:40;19.52;;;8.93;;
66619;SDS011;53484;51.356;6.732;2022-12-07T08:29:07;16.93;;;8.53;;
66619;SDS011;53484;51.356;6.732;2022-12-07T08:31:33;17.98;;;8.50;;
66619;SDS011;53484;51.356;6.732;2022-12-07T08:33:59;17.02;;;8.65;;
66619;SDS011;53484;51.356;6.732;2022-12-07T08:36:26;19.05;;;8.93;;
66619;SDS011;53484;51.356;6.732;2022-12-07T08:38:52;18.73;;;8.15;;
66619;SDS011;53484;51.356;6.732;2022-12-07T08:41:20;18.20;;;9.33;;
66619;SDS011;53484;51.356;6.732;2022-12-07T08:43:46;26.65;;;9.18;;
66619;SDS011;53484;51.356;6.732;2022-12-07T08:46:13;18.02;;;9.02;;
66619;SDS011;53484;51.356;6.732;2022-12-07T08:48:45;17.77;;;8.68;;
66619;SDS011;53484;51.356;6.732;2022-12-07T08:51:12;16.50;;;9.30;;
66619;SDS011;53484;51.356;6.732;2022-12-07T08:53:39;20.90;;;8.53;;
66619;SDS011;53484;51.356;6.732;2022-12-07T08:56:06;14.30;;;7.75;;
66619;SDS011;53484;51.356;6.732;2022-12-07T08:58:35;16.52;;;8.75;;
66619;SDS011;53484;51.356;6.732;2022-12-07T09:01:01;18.92;;;8.35;;
66619;SDS011;53484;51.356;6.732;2022-12-07T09:03:28;18.10;;;8.02;;
66619;SDS011;53484;51.356;6.732;2022-12-07T09:05:54;19.10;;;8.60;;
66619;SDS011;53484;51.356;6.732;2022-12-07T09:08:21;16.60;;;7.30;;
66619;SDS011;53484;51.356;6.732;2022-12-07T09:10:48;15.15;;;6.88;;
66619;SDS011;53484;51.356;6.732;2022-12-07T09:13:14;19.65;;;7.85;;
66619;SDS011;53484;51.356;6.732;2022-12-07T09:15:42;17.77;;;7.93;;
66619;SDS011;53484;51.356;6.732;2022-12-07T09:18:08;17.23;;;8.60;;
66619;SDS011;53484;51.356;6.732;2022-12-07T09:20:35;13.10;;;7.40;;
66619;SDS011;53484;51.356;6.732;2022-12-07T09:23:01;15.82;;;7.95;;
66619;SDS011;53484;51.356;6.732;2022-12-07T09:25:27;16.63;;;7.70;;
66619;SDS011;53484;51.356;6.732;2022-12-07T09:27:57;14.18;;;8.13;;
66619;SDS011;53484;51.356;6.732;2022-12-07T09:30:24;11.23;;;6.73;;
66619;SDS011;53484;51.356;6.732;2022-12-07T09:32:53;16.98;;;7.38;;
66619;SDS011;53484;51.356;6.732;2022-12-07T09:35:20;13.40;;;6.90;;
66619;SDS011;53484;51.356;6.732;2022-12-07T09:37:46;14.77;;;6.47;;
66619;SDS011;53484;51.356;6.732;2022-12-07T09:40:12;16.85;;;6.93;;
66619;SDS011;53484;51.356;6.732;2022-12-07T09:42:40;11.90;;;5.93;;
66619;SDS011;53484;51.356;6.732;2022-12-07T09:45:12;16.90;;;6.10;;
66619;SDS011;53484;51.356;6.732;2022-12-07T09:47:39;11.93;;;6.50;;
66619;SDS011;53484;51.356;6.732;2022-12-07T09:50:11;15.10;;;5.55;;
66619;SDS011;53484;51.356;6.732;2022-12-07T09:52:38;16.52;;;6.75;;
66619;SDS011;53484;51.356;6.732;2022-12-07T09:55:08;11.40;;;6.20;;
66619;SDS011;53484;51.356;6.732;2022-12-07T09:57:35;12.98;;;6.25;;
66619;SDS011;53484;51.356;6.732;2022-12-07T10:00:03;11.32;;;6.15;;
66619;SDS011;53484;51.356;6.732;2022-12-07T10:02:34;13.05;;;5.60;;
66619;SDS011;53484;51.356;6.732;2022-12-07T10:05:01;15.07;;;5.55;;
66619;SDS011;53484;51.356;6.732;2022-12-07T10:07:30;13.00;;;6.37;;
66619;SDS011;53484;51.356;6.732;2022-12-07T10:09:58;11.32;;;6.30;;
66619;SDS011;53484;51.356;6.732;2022-12-07T10:12:24;15.25;;;6.30;;
66619;SDS011;53484;51.356;6.732;2022-12-07T10:14:53;12.77;;;6.43;;
66619;SDS011;53484;51.356;6.732;2022-12-07T10:17:28;12.88;;;6.45;;
66619;SDS011;53484;51.356;6.732;2022-12-07T10:20:00;14.50;;;6.77;;
66619;SDS011;53484;51.356;6.732;2022-12-07T10:22:35;21.38;;;7.72;;
66619;SDS011;53484;51.356;6.732;2022-12-07T10:25:07;16.00;;;7.78;;
66619;SDS011;53484;51.356;6.732;2022-12-07T10:27:35;16.90;;;7.80;;
66619;SDS011;53484;51.356;6.732;2022-12-07T10:30:01;21.70;;;10.30;;
66619;SDS011;53484;51.356;6.732;2022-12-07T10:32:34;18.83;;;9.47;;
66619;SDS011;53484;51.356;6.732;2022-12-07T10:35:21;16.08;;;8.60;;
66619;SDS011;53484;51.356;6.732;2022-12-07T10:37:50;14.30;;;8.77;;
66619;SDS011;53484;51.356;6.732;2022-12-07T10:40:25;18.23;;;9.60;;
66619;SDS011;53484;51.356;6.732;2022-12-07T10:43:00;18.02;;;9.90;;
66619;SDS011;53484;51.356;6.732;2022-12-07T10:45:26;20.93;;;8.77;;
66619;SDS011;53484;51.356;6.732;2022-12-07T10:47:54;14.70;;;6.95;;
66619;SDS011;53484;51.356;6.732;2022-12-07T10:53:17;11.43;;;6.05;;
66619;SDS011;53484;51.356;6.732;2022-12-07T10:55:51;14.00;;;6.68;;
66619;SDS011;53484;51.356;6.732;2022-12-07T10:58:31;15.83;;;5.40;;
66619;SDS011;53484;51.356;6.732;2022-12-07T11:01:03;19.45;;;5.70;;
66619;SDS011;53484;51.356;6.732;2022-12-07T11:03:37;7.95;;;4.80;;
66619;SDS011;53484;51.356;6.732;2022-12-07T11:06:10;10.30;;;4.75;;
66619;SDS011;53484;51.356;6.732;2022-12-07T11:08:47;13.18;;;4.68;;
66619;SDS011;53484;51.356;6.732;2022-12-07T11:11:19;11.97;;;5.27;;
66619;SDS011;53484;51.356;6.732;2022-12-07T11:13:48;12.40;;;5.18;;
66619;SDS011;53484;51.356;6.732;2022-12-07T11:16:19;7.50;;;4.40;;
66619;SDS011;53484;51.356;6.732;2022-12-07T11:18:50;14.07;;;4.95;;
66619;SDS011;53484;51.356;6.732;2022-12-07T11:21:21;10.30;;;4.63;;
66619;SDS011;53484;51.356;6.732;2022-12-07T11:23:52;7.87;;;3.90;;
66619;SDS011;53484;51.356;6.732;2022-12-07T11:26:24;8.30;;;4.10;;
66619;SDS011;53484;51.356;6.732;2022-12-07T11:28:58;6.97;;;3.47;;
66619;SDS011;53484;51.356;6.732;2022-12-07T11:31:27;12.18;;;4.07;;
66619;SDS011;53484;51.356;6.732;2022-12-07T11:33:56;8.57;;;3.90;;
66619;SDS011;53484;51.356;6.732;2022-12-07T11:36:30;7.20;;;3.60;;
66619;SDS011;53484;51.356;6.732;2022-12-07T11:39:00;13.23;;;3.47;;
66619;SDS011;53484;51.356;6.732;2022-12-07T11:41:28;13.15;;;3.65;;
66619;SDS011;53484;51.356;6.732;2022-12-07T11:43:56;9.30;;;3.28;;
66619;SDS011;53484;51.356;6.732;2022-12-07T11:46:26;11.43;;;3.72;;
66619;SDS011;53484;51.356;6.732;2022-12-07T11:48:55;8.63;;;3.43;;
66619;SDS011;53484;51.356;6.732;2022-12-07T11:51:24;9.18;;;3.50;;
66619;SDS011;53484;51.356;6.732;2022-12-07T11:53:52;12.20;;;4.32;;
66619;SDS011;53484;51.356;6.732;2022-12-07T11:56:21;11.65;;;3.65;;
66619;SDS011;53484;51.356;6.732;2022-12-07T11:58:50;8.48;;;3.58;;
66619;SDS011;53484;51.356;6.732;2022-12-07T12:01:25;12.57;;;4.20;;
66619;SDS011;53484;51.356;6.732;2022-12-07T12:03:53;8.25;;;3.53;;
66619;SDS011;53484;51.356;6.732;2022-12-07T12:06:21;15.35;;;4.43;;
66619;SDS011;53484;51.356;6.732;2022-12-07T12:08:49;11.52;;;3.47;;
66619;SDS011;53484;51.356;6.732;2022-12-07T12:11:23;10.98;;;4.05;;
66619;SDS011;53484;51.356;6.732;2022-12-07T12:14:06;10.00;;;3.37;;
66619;SDS011;53484;51.356;6.732;2022-12-07T12:16:39;8.70;;;3.67;;
66619;SDS011;53484;51.356;6.732;2022-12-07T12:19:15;9.48;;;2.90;;
66619;SDS011;53484;51.356;6.732;2022-12-07T12:21:44;12.45;;;3.10;;
66619;SDS011;53484;51.356;6.732;2022-12-07T12:24:12;11.75;;;3.58;;
66619;SDS011;53484;51.356;6.732;2022-12-07T12:26:48;9.57;;;3.27;;
66619;SDS011;53484;51.356;6.732;2022-12-07T12:29:19;11.27;;;3.05;;
66619;SDS011;53484;51.356;6.732;2022-12-07T12:31:48;10.02;;;3.17;;
66619;SDS011;53484;51.356;6.732;2022-12-07T12:34:31;11.35;;;2.75;;
66619;SDS011;53484;51.356;6.732;2022-12-07T12:36:58;10.60;;;3.20;;
66619;SDS011;53484;51.356;6.732;2022-12-07T12:39:25;9.93;;;3.00;;
66619;SDS011;53484;51.356;6.732;2022-12-07T12:41:57;13.90;;;3.50;;
66619;SDS011;53484;51.356;6.732;2022-12-07T12:50:29;8.98;;;3.33;;
66619;SDS011;53484;51.356;6.732;2022-12-07T12:58:33;16.60;;;3.78;;
66619;SDS011;53484;51.356;6.732;2022-12-07T13:03:51;12.93;;;3.65;;
66619;SDS011;53484;51.356;6.732;2022-12-07T13:06:19;7.33;;;3.33;;
66619;SDS011;53484;51.356;6.732;2022-12-07T13:08:45;7.53;;;3.80;;
66619;SDS011;53484;51.356;6.732;2022-12-07T13:11:16;8.38;;;3.47;;
66619;SDS011;53484;51.356;6.732;2022-12-07T13:13:44;18.58;;;3.33;;
66619;SDS011;53484;51.356;6.732;2022-12-07T13:18:56;10.33;;;3.60;;
66619;SDS011;53484;51.356;6.732;2022-12-07T13:21:41;9.00;;;3.17;;
66619;SDS011;53484;51.356;6.732;2022-12-07T13:24:08;7.22;;;3.00;;
66619;SDS011;53484;51.356;6.732;2022-12-07T13:26:37;11.15;;;3.20;;
66619;SDS011;53484;51.356;6.732;2022-12-07T13:29:07;8.35;;;3.10;;
66619;SDS011;53484;51.356;6.732;2022-12-07T13:31:36;11.80;;;2.47;;
66619;SDS011;53484;51.356;6.732;2022-12-07T13:34:04;10.05;;;2.70;;
66619;SDS011;53484;51.356;6.732;2022-12-07T13:36:31;8.80;;;2.10;;
66619;SDS011;53484;51.356;6.732;2022-12-07T13:39:15;8.25;;;2.40;;
66619;SDS011;53484;51.356;6.732;2022-12-07T13:41:43;10.07;;;2.35;;
66619;SDS011;53484;51.356;6.732;2022-12-07T13:44:11;8.20;;;2.43;;
66619;SDS011;53484;51.356;6.732;2022-12-07T13:46:44;6.97;;;2.00;;
66619;SDS011;53484;51.356;6.732;2022-12-07T13:49:17;10.23;;;2.17;;
66619;SDS011;53484;51.356;6.732;2022-12-07T13:51:43;8.55;;;2.55;;
66619;SDS011;53484;51.356;6.732;2022-12-07T13:54:10;8.35;;;1.77;;
66619;SDS011;53484;51.356;6.732;2022-12-07T13:56:37;8.23;;;1.93;;
66619;SDS011;53484;51.356;6.732;2022-12-07T13:59:04;7.25;;;2.35;;
66619;SDS011;53484;51.356;6.732;2022-12-07T14:01:32;9.20;;;2.30;;
66619;SDS011;53484;51.356;6.732;2022-12-07T14:06:46;9.85;;;2.38;;
66619;SDS011;53484;51.356;6.732;2022-12-07T14:09:17;5.83;;;1.83;;
66619;SDS011;53484;51.356;6.732;2022-12-07T14:11:45;6.60;;;1.60;;
66619;SDS011;53484;51.356;6.732;2022-12-07T14:14:11;9.48;;;2.30;;
66619;SDS011;53484;51.356;6.732;2022-12-07T14:16:41;6.90;;;2.22;;
66619;SDS011;53484;51.356;6.732;2022-12-07T14:22:07;6.00;;;2.23;;
66619;SDS011;53484;51.356;6.732;2022-12-07T14:24:40;8.60;;;2.10;;
66619;SDS011;53484;51.356;6.732;2022-12-07T14:27:15;6.68;;;1.75;;
66619;SDS011;53484;51.356;6.732;2022-12-07T14:29:42;9.20;;;2.20;;
66619;SDS011;53484;51.356;6.732;2022-12-07T14:32:16;8.05;;;2.67;;
66619;SDS011;53484;51.356;6.732;2022-12-07T14:34:52;9.80;;;3.17;;
66619;SDS011;53484;51.356;6.732;2022-12-07T14:37:19;10.98;;;2.55;;
66619;SDS011;53484;51.356;6.732;2022-12-07T14:39:45;9.13;;;2.47;;
66619;SDS011;53484;51.356;6.732;2022-12-07T14:42:11;9.32;;;2.20;;
66619;SDS011;53484;51.356;6.732;2022-12-07T14:44:37;8.07;;;2.15;;
66619;SDS011;53484;51.356;6.732;2022-12-07T14:47:04;8.60;;;2.77;;
66619;SDS011;53484;51.356;6.732;2022-12-07T14:49:31;7.00;;;2.67;;
66619;SDS011;53484;51.356;6.732;2022-12-07T14:52:01;13.40;;;3.60;;
66619;SDS011;53484;51.356;6.732;2022-12-07T14:54:29;8.30;;;3.00;;
66619;SDS011;53484;51.356;6.732;2022-12-07T14:56:56;8.48;;;2.80;;
66619;SDS011;53484;51.356;6.732;2022-12-07T14:59:23;19.07;;;3.70;;
66619;SDS011;53484;51.356;6.732;2022-12-07T15:01:49;9.65;;;3.33;;
66619;SDS011;53484;51.356;6.732;2022-12-07T15:04:15;10.88;;;3.38;;
66619;SDS011;53484;51.356;6.732;2022-12-07T15:06:48;14.55;;;5.03;;
66619;SDS011;53484;51.356;6.732;2022-12-07T15:09:20;12.95;;;3.88;;